createdAt,value
2022-10-13T00:01:18.019Z,11.40
2022-10-13T00:03:48.718Z,11.17
2022-10-13T00:06:22.962Z,12.60
2022-10-13T00:08:49.892Z,11.60
2022-10-13T00:11:20.331Z,12.67
2022-10-13T00:13:48.576Z,11.20
2022-10-13T00:16:18.377Z,17.87
2022-10-13T00:18:46.111Z,12.30
2022-10-13T00:21:16.102Z,9.70
2022-10-13T00:23:42.867Z,11.97
2022-10-13T00:26:12.282Z,11.50
2022-10-13T00:28:40.219Z,10.50
2022-10-13T00:31:28.239Z,15.53
2022-10-13T00:33:55.777Z,11.60
2022-10-13T00:36:24.018Z,11.47
2022-10-13T00:38:51.950Z,14.07
2022-10-13T00:41:18.950Z,13.40
2022-10-13T00:44:04.104Z,13.03
2022-10-13T00:46:40.119Z,13.43
2022-10-13T00:49:09.848Z,15.50
2022-10-13T00:51:47.463Z,12.17
2022-10-13T00:54:24.816Z,12.47
2022-10-13T00:56:52.806Z,11.03
2022-10-13T00:59:27.001Z,12.27
2022-10-13T01:01:54.306Z,14.07
2022-10-13T01:04:25.632Z,12.17
2022-10-13T01:06:52.954Z,18.97
2022-10-13T01:09:19.607Z,15.90
2022-10-13T01:11:49.386Z,14.33
2022-10-13T01:14:33.739Z,15.87
2022-10-13T01:17:12.985Z,12.57
2022-10-13T01:20:05.840Z,12.17
2022-10-13T01:22:51.816Z,13.50
2022-10-13T01:25:24.406Z,12.20
2022-10-13T01:28:37.123Z,12.50
2022-10-13T01:31:20.197Z,14.17
2022-10-13T01:34:01.945Z,11.57
2022-10-13T01:36:46.759Z,10.83
2022-10-13T01:39:19.099Z,10.53
2022-10-13T01:41:54.168Z,10.47
2022-10-13T01:44:32.915Z,15.60
2022-10-13T01:47:01.890Z,12.80
2022-10-13T01:49:33.444Z,15.43
2022-10-13T01:52:08.346Z,13.50
2022-10-13T01:54:35.190Z,11.73
2022-10-13T01:57:02.640Z,12.63
2022-10-13T01:59:34.110Z,13.07
2022-10-13T02:02:15.923Z,11.27
2022-10-13T02:05:03.517Z,15.33
2022-10-13T02:07:39.242Z,12.60
2022-10-13T02:10:09.701Z,15.47
2022-10-13T02:12:42.372Z,14.93
2022-10-13T02:15:14.226Z,9.23
2022-10-13T02:17:41.965Z,13.43
2022-10-13T02:20:09.815Z,14.30
2022-10-13T02:22:43.880Z,9.47
2022-10-13T02:25:10.862Z,10.83
2022-10-13T02:27:37.619Z,9.57
2022-10-13T02:30:05.449Z,12.43
2022-10-13T02:32:32.365Z,7.80
2022-10-13T02:34:59.078Z,12.83
2022-10-13T02:37:26.117Z,13.13
2022-10-13T02:39:52.880Z,8.40
2022-10-13T02:42:19.929Z,10.47
2022-10-13T02:44:47.438Z,8.17
2022-10-13T02:47:14.194Z,7.63
2022-10-13T02:49:40.855Z,9.67
2022-10-13T02:52:08.547Z,7.70
2022-10-13T02:54:37.646Z,10.53
2022-10-13T02:57:04.346Z,9.33
2022-10-13T02:59:31.158Z,9.87
2022-10-13T03:01:57.909Z,7.60
2022-10-13T03:04:26.114Z,7.63
2022-10-13T03:06:53.730Z,9.20
2022-10-13T03:09:20.430Z,8.03
2022-10-13T03:11:47.781Z,7.47
2022-10-13T03:14:14.519Z,8.60
2022-10-13T03:16:41.249Z,8.57
2022-10-13T03:19:09.962Z,10.50
2022-10-13T03:21:38.529Z,8.13
2022-10-13T03:24:05.694Z,9.20
2022-10-13T03:26:33.949Z,10.60
2022-10-13T03:29:01.403Z,11.07
2022-10-13T03:31:28.474Z,10.17
2022-10-13T03:34:01.861Z,7.87
2022-10-13T03:36:28.544Z,11.03
2022-10-13T03:38:55.325Z,10.37
2022-10-13T03:41:22.595Z,7.20
2022-10-13T03:43:51.958Z,11.67
2022-10-13T03:46:19.363Z,5.93
2022-10-13T03:48:48.217Z,9.80
2022-10-13T03:51:18.198Z,8.17
2022-10-13T03:53:46.488Z,12.60
2022-10-13T03:56:18.306Z,7.70
2022-10-13T03:58:55.392Z,6.33
2022-10-13T04:01:24.151Z,13.97
2022-10-13T04:03:54.037Z,6.47
2022-10-13T04:06:20.762Z,6.13
2022-10-13T04:08:48.511Z,6.50
2022-10-13T04:11:16.982Z,9.37
2022-10-13T04:13:44.952Z,8.30
2022-10-13T04:16:23.665Z,7.30
2022-10-13T04:18:55.026Z,7.10
2022-10-13T04:21:22.687Z,10.97
2022-10-13T04:23:50.383Z,6.17
2022-10-13T04:26:20.426Z,8.37
2022-10-13T04:28:49.516Z,7.87
2022-10-13T04:31:17.034Z,8.00
2022-10-13T04:33:45.181Z,8.03
2022-10-13T04:36:13.994Z,10.97
2022-10-13T04:38:41.818Z,11.67
2022-10-13T04:41:09.811Z,8.27
2022-10-13T04:43:36.585Z,8.87
2022-10-13T04:46:07.430Z,9.27
2022-10-13T04:48:34.752Z,7.70
2022-10-13T04:51:08.178Z,6.87
2022-10-13T04:53:35.935Z,8.90
2022-10-13T04:56:08.578Z,10.77
2022-10-13T04:58:36.262Z,7.30
2022-10-13T05:01:04.931Z,6.30
2022-10-13T05:03:32.430Z,8.30
2022-10-13T05:05:59.251Z,8.87
2022-10-13T05:08:26.115Z,9.23
2022-10-13T05:11:02.667Z,9.43
2022-10-13T05:13:30.471Z,8.87
2022-10-13T05:15:57.923Z,8.37
2022-10-13T05:18:24.786Z,9.43
2022-10-13T05:20:51.599Z,9.83
2022-10-13T05:23:19.031Z,10.70
2022-10-13T05:25:45.783Z,17.80
2022-10-13T05:28:14.630Z,14.77
2022-10-13T05:30:41.378Z,10.07
2022-10-13T05:33:09.279Z,8.50
2022-10-13T05:35:36.073Z,11.67
2022-10-13T05:38:02.794Z,8.13
2022-10-13T05:40:29.858Z,13.10
2022-10-13T05:43:00.521Z,13.50
2022-10-13T05:45:29.593Z,10.93
2022-10-13T05:47:56.329Z,15.33
2022-10-13T05:50:23.105Z,13.00
2022-10-13T05:52:51.514Z,8.90
2022-10-13T05:55:19.242Z,14.73
2022-10-13T05:57:50.378Z,11.60
2022-10-13T06:00:19.422Z,13.47
2022-10-13T06:03:03.397Z,14.73
2022-10-13T06:05:32.989Z,10.90
2022-10-13T06:08:00.290Z,8.73
2022-10-13T06:10:27.253Z,11.40
2022-10-13T06:12:53.940Z,13.50
2022-10-13T06:15:24.435Z,12.23
2022-10-13T06:17:56.067Z,12.43
2022-10-13T06:20:23.923Z,13.63
2022-10-13T06:22:57.186Z,12.73
2022-10-13T06:25:23.987Z,10.47
2022-10-13T06:27:51.997Z,14.93
2022-10-13T06:30:20.238Z,11.27
2022-10-13T06:32:47.239Z,12.50
2022-10-13T06:35:14.658Z,16.07
2022-10-13T06:37:41.438Z,20.93
2022-10-13T06:40:10.591Z,17.07
2022-10-13T06:42:37.357Z,13.63
2022-10-13T06:45:10.530Z,16.43
2022-10-13T06:47:40.438Z,17.83
2022-10-13T06:50:07.522Z,13.47
2022-10-13T06:52:34.867Z,13.03
2022-10-13T06:55:01.650Z,10.40
2022-10-13T06:57:29.269Z,16.20
2022-10-13T06:59:57.661Z,24.10
2022-10-13T07:02:24.326Z,15.27
2022-10-13T07:04:51.275Z,12.50
2022-10-13T07:07:18.482Z,15.83
2022-10-13T07:09:46.222Z,14.83
2022-10-13T07:12:14.233Z,14.30
2022-10-13T07:14:43.699Z,12.67
2022-10-13T07:17:11.223Z,14.37
2022-10-13T07:19:37.970Z,14.10
2022-10-13T07:22:05.222Z,15.73
2022-10-13T07:24:32.022Z,15.80
2022-10-13T07:27:01.740Z,15.50
2022-10-13T07:29:30.713Z,9.37
2022-10-13T07:31:57.404Z,17.87
2022-10-13T07:34:24.313Z,12.57
2022-10-13T07:36:51.546Z,10.63
2022-10-13T07:39:18.423Z,12.83
2022-10-13T07:41:48.795Z,9.87
2022-10-13T07:44:17.771Z,11.50
2022-10-13T07:46:44.553Z,11.37
2022-10-13T07:49:15.249Z,16.17
2022-10-13T07:51:44.456Z,12.50
2022-10-13T07:54:11.326Z,13.13
2022-10-13T07:56:39.450Z,10.40
2022-10-13T07:59:07.147Z,10.27
2022-10-13T08:01:34.087Z,12.30
2022-10-13T08:04:00.913Z,17.47
2022-10-13T08:06:27.623Z,14.23
2022-10-13T08:08:58.190Z,11.70
2022-10-13T08:11:24.926Z,12.33
2022-10-13T08:13:52.825Z,12.80
2022-10-13T08:16:22.968Z,12.53
2022-10-13T08:18:50.846Z,10.55
2022-10-13T08:24:09.683Z,11.23
2022-10-13T08:26:36.834Z,13.32
2022-10-13T08:29:31.952Z,12.52
2022-10-13T08:31:53.281Z,15.75
2022-10-13T08:34:22.102Z,12.55
2022-10-13T08:36:52.808Z,12.68
2022-10-13T08:39:20.826Z,12.40
2022-10-13T08:41:48.237Z,14.27
2022-10-13T08:47:46.931Z,15.77
2022-10-13T08:50:17.902Z,18.23
2022-10-13T08:52:58.633Z,11.70
2022-10-13T08:55:44.841Z,15.18
2022-10-13T08:58:17.259Z,12.30
2022-10-13T09:00:44.013Z,12.05
2022-10-13T09:03:24.822Z,10.38
2022-10-13T09:06:17.822Z,17.05
2022-10-13T09:08:56.854Z,13.48
2022-10-13T09:11:27.659Z,12.85
2022-10-13T09:13:56.041Z,19.05
2022-10-13T09:16:36.297Z,14.70
2022-10-13T09:19:27.342Z,12.68
2022-10-13T09:21:55.905Z,15.48
2022-10-13T09:24:25.026Z,12.38
2022-10-13T09:27:11.683Z,14.85
2022-10-13T09:29:40.022Z,11.48
2022-10-13T09:32:21.882Z,17.70
2022-10-13T09:34:50.271Z,15.70
2022-10-13T09:37:23.157Z,19.48
2022-10-13T09:40:19.993Z,17.83
2022-10-13T09:42:53.420Z,14.35
2022-10-13T09:45:23.250Z,17.15
2022-10-13T09:48:07.627Z,21.58
2022-10-13T09:50:36.581Z,15.63
2022-10-13T09:53:32.734Z,13.60
2022-10-13T09:56:13.826Z,20.73
2022-10-13T09:58:47.057Z,18.50
2022-10-13T10:01:32.502Z,15.88
2022-10-13T10:04:13.096Z,18.35
2022-10-13T10:06:41.058Z,17.08
2022-10-13T10:09:36.726Z,19.88
2022-10-13T10:12:05.349Z,18.27
2022-10-13T10:14:37.160Z,18.95
2022-10-13T10:17:12.940Z,18.58
2022-10-13T10:19:47.502Z,17.15
2022-10-13T10:22:32.458Z,22.20
2022-10-13T10:25:22.027Z,13.80
2022-10-13T10:28:13.626Z,16.50
2022-10-13T10:30:52.004Z,16.55
2022-10-13T10:33:23.691Z,15.98
2022-10-13T10:36:07.103Z,19.05
2022-10-13T10:38:44.314Z,14.70
2022-10-13T10:41:32.817Z,17.75
2022-10-13T10:44:11.142Z,12.82
2022-10-13T10:46:48.289Z,14.20
2022-10-13T10:49:31.145Z,14.18
2022-10-13T10:52:02.929Z,12.77
2022-10-13T10:54:54.071Z,13.02
2022-10-13T10:57:43.947Z,15.90
2022-10-13T11:00:18.953Z,15.77
2022-10-13T11:02:57.761Z,13.65
2022-10-13T11:05:24.911Z,18.42
2022-10-13T11:07:52.402Z,14.80
2022-10-13T11:10:22.597Z,19.77
2022-10-13T11:12:52.539Z,15.93
2022-10-13T11:15:46.978Z,19.88
2022-10-13T11:19:08.415Z,15.77
2022-10-13T11:21:53.721Z,13.63
2022-10-13T11:24:42.287Z,16.98
2022-10-13T11:27:17.129Z,15.57
2022-10-13T11:29:54.734Z,18.63
2022-10-13T11:32:27.604Z,11.57
2022-10-13T11:35:07.689Z,14.38
2022-10-13T11:38:13.874Z,12.18
2022-10-13T11:41:24.706Z,22.15
2022-10-13T11:44:04.942Z,11.75
2022-10-13T11:46:55.831Z,15.32
2022-10-13T11:49:28.542Z,11.93
2022-10-13T11:52:02.153Z,13.60
2022-10-13T11:54:39.047Z,14.70
2022-10-13T11:57:21.604Z,13.07
2022-10-13T11:59:51.549Z,12.98
2022-10-13T12:02:26.577Z,8.75
2022-10-13T12:05:23.240Z,13.30
2022-10-13T12:07:52.956Z,18.33
2022-10-13T12:10:25.235Z,11.43
2022-10-13T12:12:53.840Z,8.00
2022-10-13T12:15:47.052Z,10.50
2022-10-13T12:18:27.536Z,15.52
2022-10-13T12:20:57.201Z,9.98
2022-10-13T12:23:28.446Z,10.05
2022-10-13T12:25:58.781Z,13.07
2022-10-13T12:28:56.067Z,16.15
2022-10-13T12:31:26.050Z,12.43
2022-10-13T12:34:02.845Z,11.18
2022-10-13T12:36:31.397Z,9.25
2022-10-13T12:39:10.615Z,11.82
2022-10-13T12:41:42.876Z,9.05
2022-10-13T12:44:20.700Z,10.00
2022-10-13T12:46:58.744Z,9.13
2022-10-13T12:49:31.575Z,12.43
2022-10-13T12:52:03.977Z,12.38
2022-10-13T12:54:33.847Z,12.10
2022-10-13T12:57:05.968Z,11.80
2022-10-13T12:59:34.581Z,19.15
2022-10-13T13:02:04.301Z,12.57
2022-10-13T13:04:41.195Z,12.68
2022-10-13T13:07:28.416Z,9.02
2022-10-13T13:10:08.442Z,7.47
2022-10-13T13:12:37.099Z,11.07
2022-10-13T13:15:25.170Z,14.25
2022-10-13T13:17:58.946Z,9.13
2022-10-13T13:20:29.886Z,13.60
2022-10-13T13:22:56.766Z,9.65
2022-10-13T13:25:23.864Z,8.32
2022-10-13T13:27:51.046Z,9.25
2022-10-13T13:30:21.351Z,11.05
2022-10-13T13:32:49.178Z,8.75
2022-10-13T13:35:16.167Z,7.97
2022-10-13T13:37:49.839Z,9.32
2022-10-13T13:40:19.831Z,6.88
2022-10-13T13:42:47.769Z,8.85
2022-10-13T13:45:20.459Z,10.40
2022-10-13T13:47:47.699Z,14.82
2022-10-13T13:50:24.276Z,14.38
2022-10-13T13:52:57.387Z,17.23
2022-10-13T13:55:25.023Z,9.73
2022-10-13T13:57:51.963Z,11.80
2022-10-13T14:00:19.502Z,12.57
2022-10-13T14:02:49.922Z,11.32
2022-10-13T14:05:17.183Z,19.90
2022-10-13T14:07:43.997Z,11.35
2022-10-13T14:10:11.272Z,14.38
2022-10-13T14:12:38.121Z,9.88
2022-10-13T14:15:05.666Z,9.50
2022-10-13T14:17:32.432Z,8.57
2022-10-13T14:20:00.289Z,10.90
2022-10-13T14:22:27.218Z,11.35
2022-10-13T14:24:54.675Z,10.68
2022-10-13T14:27:21.439Z,13.85
2022-10-13T14:29:48.414Z,15.50
2022-10-13T14:32:16.032Z,17.30
2022-10-13T14:34:42.776Z,10.75
2022-10-13T14:37:09.513Z,8.07
2022-10-13T14:39:36.221Z,24.02
2022-10-13T14:42:03.176Z,10.63
2022-10-13T14:44:29.912Z,7.93
2022-10-13T14:46:56.793Z,12.05
2022-10-13T14:49:24.751Z,8.35
2022-10-13T14:51:51.406Z,14.32
2022-10-13T14:54:18.190Z,12.05
2022-10-13T14:56:45.003Z,12.15
2022-10-13T14:59:12.162Z,14.13
2022-10-13T15:01:41.621Z,19.33
2022-10-13T15:04:10.652Z,19.55
2022-10-13T15:06:40.010Z,16.40
2022-10-13T15:11:36.821Z,18.48
2022-10-13T15:14:03.615Z,14.80
2022-10-13T15:16:33.386Z,19.67
2022-10-13T15:19:00.500Z,15.43
2022-10-13T15:21:27.265Z,31.35
2022-10-13T15:23:55.093Z,33.75
2022-10-13T15:26:22.326Z,34.80
2022-10-13T15:28:51.799Z,26.50
2022-10-13T15:31:19.823Z,33.92
2022-10-13T15:33:52.066Z,32.22
2022-10-13T15:36:25.485Z,18.27
2022-10-13T15:38:52.837Z,16.05
2022-10-13T15:41:21.475Z,11.43
2022-10-13T15:43:48.399Z,18.23
2022-10-13T15:46:26.442Z,16.70
2022-10-13T15:48:55.754Z,13.77
2022-10-13T15:51:25.713Z,20.05
2022-10-13T15:53:52.598Z,19.83
2022-10-13T15:56:19.304Z,18.33
2022-10-13T15:58:46.250Z,14.50
2022-10-13T16:01:14.328Z,18.13
2022-10-13T16:03:42.626Z,15.23
2022-10-13T16:06:12.008Z,18.08
2022-10-13T16:08:40.513Z,17.42
2022-10-13T16:11:09.102Z,13.60
2022-10-13T16:13:35.939Z,18.83
2022-10-13T16:16:03.146Z,19.20
2022-10-13T16:18:36.241Z,12.15
2022-10-13T16:21:24.228Z,16.38
2022-10-13T16:23:52.045Z,15.52
2022-10-13T16:26:19.400Z,12.68
2022-10-13T16:28:47.098Z,17.95
2022-10-13T16:31:16.315Z,16.35
2022-10-13T16:33:44.398Z,12.77
2022-10-13T16:36:14.951Z,14.43
2022-10-13T16:38:43.456Z,16.77
2022-10-13T16:41:14.705Z,14.55
2022-10-13T16:43:43.855Z,16.60
2022-10-13T16:46:13.510Z,11.40
2022-10-13T16:48:42.135Z,14.07
2022-10-13T16:51:12.767Z,13.38
2022-10-13T16:53:39.745Z,12.75
2022-10-13T16:56:08.139Z,16.50
2022-10-13T16:58:35.238Z,11.75
2022-10-13T17:01:09.719Z,13.77
2022-10-13T17:03:37.594Z,13.40
2022-10-13T17:06:05.031Z,16.77
2022-10-13T17:08:32.377Z,17.88
2022-10-13T17:11:01.061Z,16.15
2022-10-13T17:13:28.183Z,17.37
2022-10-13T17:15:57.292Z,13.00
2022-10-13T17:18:26.215Z,15.32
2022-10-13T17:21:05.164Z,14.23
2022-10-13T17:23:32.517Z,15.07
2022-10-13T17:26:05.626Z,14.00
2022-10-13T17:28:33.986Z,17.97
2022-10-13T17:31:12.311Z,11.93
2022-10-13T17:33:41.342Z,11.17
2022-10-13T17:36:16.799Z,11.43
2022-10-13T17:38:43.887Z,12.93
2022-10-13T17:41:12.440Z,19.90
2022-10-13T17:43:50.374Z,22.70
2022-10-13T17:46:40.313Z,16.10
2022-10-13T17:49:11.562Z,14.80
2022-10-13T17:51:40.050Z,11.80
2022-10-13T17:54:10.146Z,16.17
2022-10-13T17:56:40.167Z,11.13
2022-10-13T17:59:06.865Z,19.93
2022-10-13T18:01:34.801Z,11.13
2022-10-13T18:04:07.781Z,16.30
2022-10-13T18:06:40.106Z,18.03
2022-10-13T18:09:11.716Z,12.37
2022-10-13T18:11:39.237Z,15.60
2022-10-13T18:14:06.798Z,13.80
2022-10-13T18:16:34.997Z,14.07
2022-10-13T18:19:04.961Z,16.03
2022-10-13T18:21:32.020Z,18.00
2022-10-13T18:24:01.416Z,16.73
2022-10-13T18:26:37.925Z,18.80
2022-10-13T18:29:07.182Z,16.83
2022-10-13T18:31:36.858Z,18.53
2022-10-13T18:34:06.695Z,17.13
2022-10-13T18:36:36.557Z,16.53
2022-10-13T18:39:13.229Z,20.67
2022-10-13T18:41:40.757Z,14.27
2022-10-13T18:44:08.253Z,17.00
2022-10-13T18:46:37.524Z,14.50
2022-10-13T18:49:12.242Z,19.60
2022-10-13T18:51:42.227Z,27.83
2022-10-13T18:54:09.575Z,15.63
2022-10-13T18:56:37.009Z,14.23
2022-10-13T18:59:06.136Z,27.70
2022-10-13T19:01:35.054Z,18.70
2022-10-13T19:04:02.327Z,27.30
2022-10-13T19:06:32.067Z,19.20
2022-10-13T19:09:00.976Z,23.60
2022-10-13T19:11:29.816Z,18.27
2022-10-13T19:13:58.696Z,22.27
2022-10-13T19:16:28.460Z,20.40
2022-10-13T19:18:56.101Z,21.43
2022-10-13T19:21:24.386Z,15.07
2022-10-13T19:23:51.422Z,16.77
2022-10-13T19:26:27.736Z,18.40
2022-10-13T19:28:56.306Z,18.63
2022-10-13T19:31:26.291Z,19.07
2022-10-13T19:33:53.590Z,18.13
2022-10-13T19:36:29.113Z,16.07
2022-10-13T19:39:01.726Z,20.90
2022-10-13T19:41:31.473Z,16.20
2022-10-13T19:43:59.082Z,21.77
2022-10-13T19:46:35.360Z,18.13
2022-10-13T19:49:03.349Z,15.90
2022-10-13T19:51:30.771Z,19.00
2022-10-13T19:53:57.904Z,18.80
2022-10-13T19:56:28.892Z,18.33
2022-10-13T19:58:55.667Z,14.10
2022-10-13T20:01:23.303Z,23.00
2022-10-13T20:03:50.800Z,14.27
2022-10-13T20:06:19.135Z,16.93
2022-10-13T20:08:46.630Z,17.70
2022-10-13T20:11:22.217Z,17.73
2022-10-13T20:13:50.788Z,13.03
2022-10-13T20:16:20.531Z,17.50
2022-10-13T20:18:55.363Z,21.17
2022-10-13T20:21:22.783Z,14.67
2022-10-13T20:23:50.722Z,17.57
2022-10-13T20:26:18.362Z,17.97
2022-10-13T20:28:46.394Z,13.47
2022-10-13T20:31:15.185Z,16.87
2022-10-13T20:33:43.378Z,18.63
2022-10-13T20:36:15.352Z,16.53
2022-10-13T20:38:43.137Z,13.63
2022-10-13T20:41:20.339Z,14.97
2022-10-13T20:43:48.441Z,21.13
2022-10-13T20:46:17.120Z,14.57
2022-10-13T20:49:09.308Z,14.70
2022-10-13T20:51:31.404Z,15.50
2022-10-13T20:53:59.858Z,18.67
2022-10-13T20:56:27.268Z,25.97
2022-10-13T20:58:54.397Z,14.83
2022-10-13T21:01:22.457Z,14.37
2022-10-13T21:03:54.204Z,17.37
2022-10-13T21:06:23.090Z,13.40
2022-10-13T21:08:49.826Z,16.63
2022-10-13T21:11:18.865Z,20.23
2022-10-13T21:13:46.033Z,24.30
2022-10-13T21:16:16.634Z,13.23
2022-10-13T21:18:48.085Z,16.30
2022-10-13T21:21:17.383Z,15.83
2022-10-13T21:23:46.094Z,16.57
2022-10-13T21:26:20.415Z,24.40
2022-10-13T21:28:48.850Z,19.23
2022-10-13T21:31:16.884Z,13.83
2022-10-13T21:33:44.979Z,18.57
2022-10-13T21:36:20.163Z,16.57
2022-10-13T21:38:50.951Z,17.83
2022-10-13T21:41:18.138Z,17.90
2022-10-13T21:43:45.394Z,19.60
2022-10-13T21:46:15.772Z,23.80
2022-10-13T21:48:44.116Z,18.23
2022-10-13T21:51:18.024Z,21.30
2022-10-13T21:53:49.971Z,16.57
2022-10-13T21:56:17.055Z,13.63
2022-10-13T21:58:45.321Z,13.87
2022-10-13T22:01:12.753Z,18.33
2022-10-13T22:03:41.597Z,17.27
2022-10-13T22:06:18.423Z,16.27
2022-10-13T22:08:47.976Z,20.93
2022-10-13T22:11:22.965Z,17.63
2022-10-13T22:13:50.022Z,14.43
2022-10-13T22:16:20.109Z,16.77
2022-10-13T22:18:47.810Z,13.97
2022-10-13T22:21:17.599Z,16.83
2022-10-13T22:23:45.354Z,16.90
2022-10-13T22:26:13.143Z,13.10
2022-10-13T22:28:40.355Z,17.70
2022-10-13T22:31:10.305Z,15.60
2022-10-13T22:33:38.902Z,17.53
2022-10-13T22:36:25.585Z,13.60
2022-10-13T22:38:54.673Z,15.70
2022-10-13T22:41:21.963Z,16.73
2022-10-13T22:43:53.571Z,18.50
2022-10-13T22:46:23.735Z,20.60
2022-10-13T22:48:50.763Z,18.43
2022-10-13T22:51:20.404Z,14.10
2022-10-13T22:53:48.158Z,17.03
2022-10-13T22:56:17.562Z,15.93
2022-10-13T22:58:48.387Z,12.53
2022-10-13T23:01:16.099Z,21.00
2022-10-13T23:03:43.388Z,15.43
2022-10-13T23:06:14.719Z,11.73
2022-10-13T23:08:41.834Z,15.10
2022-10-13T23:11:09.196Z,11.03
2022-10-13T23:13:36.411Z,13.87
2022-10-13T23:16:09.306Z,8.47
2022-10-13T23:18:38.254Z,9.43
2022-10-13T23:21:10.211Z,13.50
2022-10-13T23:23:37.041Z,10.70
2022-10-13T23:26:13.766Z,10.23
2022-10-13T23:28:40.962Z,7.60
2022-10-13T23:31:12.202Z,8.40
2022-10-13T23:33:39.047Z,7.47
2022-10-13T23:36:06.745Z,5.97
2022-10-13T23:38:34.512Z,5.77
2022-10-13T23:41:06.778Z,7.03
2022-10-13T23:43:34.522Z,5.40
2022-10-13T23:46:01.985Z,5.33
2022-10-13T23:48:30.166Z,5.30
2022-10-13T23:50:57.265Z,6.17
2022-10-13T23:53:24.019Z,5.20
2022-10-13T23:55:50.853Z,7.53
2022-10-13T23:58:17.572Z,5.07
